Terminal Aerodrome Forecast
Issued by NWS North Platte, NE

Home | Current Version | Previous Version | Text Only | Print | Product List | Glossary On
Versions: 1 2 3 4 5 6 7 8 9 10 11 12 13 14 15 16 17 18 19 20
378
FTUS43 KLBF 201120
TAFLBF
TAF
KLBF 201120Z 2012/2112 30005KT P6SM FEW200
     FM202000 22005KT P6SM SKC
     FM202300 16006KT P6SM SKC
     FM210300 13007KT P6SM SKC
     FM210900 14007KT P6SM SKC WS020/17050KT=

USA.gov is the U.S. government's official web portal to all federal, state and local government web resources and services.